Jepson Prairie Reserve, California Weather observations

Data are for 10 minute period ending at time listed.
 Day   Time   Solar   Ave.   Ave.  Ave.  Vector  Max.   Baro.   Total    
  of    of     Rad.   Air    Rel.  Wind   Wind   Wind  Press.  Precip.   
Year   Day            Temp.  Hum.  Speed  Dir.   Gust                    
2015   (PST)  Kw/m2    F      %     mph   deg.    mph    mb.     in.     
-------------------------------------------------------------------------
  91    0:00   0.00   45.0    78    3.0   202     5.6   1019.3    0.00 
  91    0:10   0.00   45.0    77    4.2   194     5.9   1019.0    0.00 
  91    0:20   0.00   45.9    73    3.9   168     5.8   1019.0    0.00 
  91    0:30   0.00   46.2    72    5.5   167     6.5   1019.0    0.00 
  91    0:40   0.00   44.0    76    5.0   156     6.1   1019.0    0.00 
  91    0:50   0.00   42.0    84    4.2   175     5.7   1019.3    0.00 
  91    1:00   0.00   43.0    82    3.3   188     5.3   1019.3    0.00 
  91    1:10   0.00   42.2    82    2.8   165     4.5   1019.0    0.00 
  91    1:20   0.00   42.6    82    4.8   187     6.4   1019.0    0.00 
  91    1:30   0.00   41.5    80    5.2   185     6.6   1019.0    0.00 
  91    1:40   0.00   40.3    84    2.0   134     3.5   1019.0    0.00 
  91    1:50   0.00   39.9    87    1.8   150     3.4   1019.0    0.00 
  91    2:00   0.00   40.6    88    0.0     0     0.0   1019.0    0.00 
  91    2:10   0.00   41.5    87    0.2   162     1.0   1018.6    0.00 
  91    2:20   0.00   41.1    88    0.3   162     1.5   1018.6    0.00 
  91    2:30   0.00   38.7    88    2.4   146     3.4   1018.3    0.00 
  91    2:40   0.00   37.7    92    3.1   160     3.8   1018.3    0.00 
  91    2:50   0.00   38.2    90    4.0   202     4.7   1018.6    0.00 
  91    3:00   0.00   37.2    91    4.2   211     4.8   1018.6    0.00 
  91    3:10   0.00   37.1    90    6.5   214     8.3   1018.3    0.00 
  91    3:20   0.00   37.8    91    5.8   217     6.7   1018.3    0.00 
  91    3:30   0.00   38.7    90    5.3   213     6.5   1018.6    0.00 
  91    3:40   0.00   38.4    89    4.8   207     6.1   1018.3    0.00 
  91    3:50   0.00   36.0    89    4.9   208     5.8   1018.3    0.00 
  91    4:00   0.00   35.3    90    6.0   210     6.9   1018.0    0.00 
  91    4:10   0.00   34.5    90    7.1   209     8.1   1018.3    0.00 
  91    4:20   0.00   33.4    90    7.8   211     8.5   1018.3    0.00 
  91    4:30   0.00   34.2    90    6.7   209     7.2   1018.3    0.00 
  91    4:40   0.00   34.1    88    4.8   214     6.5   1018.3    0.00 
  91    4:50   0.00   34.7    88    5.5   226     7.7   1018.6    0.00 
  91    5:00   0.00   34.8    87    4.2   204     5.4   1018.6    0.00 
  91    5:10   0.00   35.7    87    3.4   177     5.1   1018.3    0.00 
  91    5:20   0.00   36.1    86    2.9   179     4.8   1018.3    0.00 
  91    5:30   0.00   36.0    85    4.0   208     6.5   1018.3    0.00 
  91    5:40   0.00   36.1    84    6.3   217     7.7   1018.3    0.00 
  91    5:50   0.00   36.0    84    7.2   211     9.1   1018.6    0.00 
  91    6:00   0.01   35.8    86    5.1   208     7.0   1018.6    0.00 
  91    6:10   0.02   37.1    87    5.6   206     7.0   1018.6    0.00 
  91    6:20   0.04   37.8    86    7.4   209     8.7   1018.6    0.00 
  91    6:30   0.07   37.6    87    8.0   214    10.0   1018.6    0.00 
  91    6:40   0.09   40.1    86    6.7   200     8.6   1018.6    0.00 
  91    6:50   0.13   42.1    85    5.7   199     7.7   1018.6    0.00 
  91    7:00   0.16   44.2    82    7.1   201     8.8   1018.6    0.00 
  91    7:10   0.20   46.4    78    7.0   207     9.1   1018.6    0.00 
  91    7:20   0.24   48.1    72    8.9   211    11.3   1018.6    0.00 
  91    7:30   0.29   50.0    69    8.2   212    11.4   1018.6    0.00 
  91    7:40   0.26   51.3    62    8.7   214    11.9   1018.6    0.00 
  91    7:50   0.29   52.4    60    9.0   213    10.7   1018.6    0.00 
  91    8:00   0.26   53.3    56   10.3   215    12.2   1019.0    0.00 
  91    8:10   0.32   54.3    53   10.0   216    12.7   1019.0    0.00 
  91    8:20   0.44   55.5    49   10.7   215    12.5   1019.0    0.00 
  91    8:30   0.47   57.1    46   10.1   216    12.4   1019.3    0.00 
  91    8:40   0.50   57.9    43    9.7   215    13.0   1019.3    0.00 
  91    8:50   0.52   58.6    41    9.2   211    12.9   1019.6    0.00 
  91    9:00   0.56   59.4    36    5.8   240    11.0   1019.6    0.00 
  91    9:10   0.58   59.3    33    7.2   321    12.4   1019.6    0.00 
  91    9:20   0.60   59.9    32    5.6   279     8.6   1019.6    0.00 
  91    9:30   0.64   60.5    31    5.4   303    11.9   1019.6    0.00 
  91    9:40   0.67   61.4    31    4.1   297     9.7   1019.6    0.00 
  91    9:50   0.69   61.7    29    7.3   275    12.3   1019.6    0.00 
  91   10:00   0.72   61.7    30    7.3   296    13.7   1019.3    0.00 
  91   10:10   0.75   61.4    30    6.5   287    10.7   1019.3    0.00 
  91   10:20   0.71   62.2    29    7.9   292    13.7   1019.0    0.00 
  91   10:30   0.80   62.4    29    5.2   302    11.8   1019.0    0.00 
  91   10:40   0.86   63.3    27    7.3   297    13.7   1019.0    0.00 
  91   10:50   0.82   63.3    27    6.7   297    11.5   1019.0    0.00 
  91   11:00   0.81   64.6    26    2.7   240     6.5   1018.6    0.00 
  91   11:10   0.72   65.8    27    3.9   262    14.3   1018.6    0.00 
  91   11:20   0.78   66.1    27    4.1   295     8.0   1018.6    0.00 
  91   11:30   0.66   64.5    28    6.3   294    12.9   1018.6    0.00 
  91   11:40   0.67   65.5    29    3.2   250     7.4   1018.3    0.00 
  91   11:50   0.69   66.1    27    3.7   244     8.2   1018.3    0.00 
  91   12:00   0.68   66.4    26    3.5   204     8.2   1018.0    0.00 
  91   12:10   0.71   66.5    27    3.6   207    10.4   1018.0    0.00 
  91   12:20   0.80   66.4    28    6.9   206    12.4   1018.0    0.00 
  91   12:30   0.73   66.3    28    5.5   150     9.1   1017.6    0.00 
  91   12:40   0.79   66.7    28    6.0   198    11.0   1017.6    0.00 
  91   12:50   0.83   67.4    30    7.4   186    16.4   1017.6    0.00 
  91   13:00   0.76   66.7    31    8.2   181    14.0   1017.3    0.00 
  91   13:10   0.86   67.7    30    8.1   194    12.7   1017.3    0.00 
  91   13:20   0.85   67.9    29    9.5   220    16.8   1016.9    0.00 
  91   13:30   0.68   67.0    30    8.4   191    13.6   1016.9    0.00 
  91   13:40   0.60   66.8    29    8.9   228    14.7   1016.6    0.00 
  91   13:50   0.83   67.4    28    6.7   232    13.2   1016.6    0.00 
  91   14:00   0.71   68.2    29    7.3   194    14.0   1016.6    0.00 
  91   14:10   0.70   67.5    29    8.2   212    14.5   1016.6    0.00 
  91   14:20   0.64   68.3    31   10.9   207    15.5   1016.3    0.00 
  91   14:30   0.68   67.9    30    7.9   192    13.2   1016.3    0.00 
  91   14:40   0.69   68.2    29    9.4   204    16.8   1016.3    0.00 
  91   14:50   0.65   68.1    29    8.9   203    14.8   1016.3    0.00 
  91   15:00   0.62   68.5    28    9.9   221    16.2   1015.9    0.00 
  91   15:10   0.59   68.3    28    9.1   216    13.7   1015.9    0.00 
  91   15:20   0.56   68.1    28    7.3   210    13.8   1015.9    0.00 
  91   15:30   0.53   68.1    32   11.1   225    16.5   1015.6    0.00 
  91   15:40   0.50   67.9    33   13.2   236    18.0   1015.6    0.00 
  91   15:50   0.47   67.1    35   14.8   233    19.2   1015.6    0.00 
  91   16:00   0.44   66.3    37   15.5   226    20.8   1015.6    0.00 
  91   16:10   0.40   66.3    39   16.6   222    20.0   1015.6    0.00 
  91   16:20   0.37   66.0    39   15.8   226    20.7   1015.6    0.00 
  91   16:30   0.34   65.8    41   16.5   214    22.4   1015.6    0.00 
  91   16:40   0.31   65.1    42   16.2   216    20.3   1015.6    0.00 
  91   16:50   0.28   64.8    39   16.7   229    21.3   1015.6    0.00 
  91   17:00   0.24   64.3    39   16.2   230    21.0   1015.6    0.00 
  91   17:10   0.21   63.6    39   17.2   229    21.9   1015.6    0.00 
  91   17:20   0.17   63.1    41   16.3   227    21.8   1015.2    0.00 
  91   17:30   0.14   62.7    43   15.7   225    19.5   1015.2    0.00 
  91   17:40   0.12   61.9    43   17.3   226    22.1   1015.2    0.00 
  91   17:50   0.08   60.9    44   16.8   228    21.0   1015.2    0.00 
  91   18:00   0.06   60.2    46   16.5   226    20.0   1015.2    0.00 
  91   18:10   0.04   59.4    48   15.7   219    19.2   1015.2    0.00 
  91   18:20   0.02   58.5    50   15.1   212    19.7   1015.2    0.00 
  91   18:30   0.01   57.6    52   15.2   210    19.8   1015.2    0.00 
  91   18:40   0.00   57.3    53   15.6   211    18.6   1015.2    0.00 
  91   18:50   0.00   57.2    54   14.0   207    18.9   1015.2    0.00 
  91   19:00   0.00   56.1    57   11.9   204    15.8   1015.2    0.00 
  91   19:10   0.00   54.5    63   11.7   201    14.0   1015.2    0.00 
  91   19:20   0.00   52.9    69   11.4   200    13.5   1015.2    0.00 
  91   19:30   0.00   52.3    73   11.9   205    13.4   1015.2    0.00 
  91   19:40   0.00   52.1    74   11.3   205    13.7   1015.2    0.00 
  91   19:50   0.00   52.4    74   12.2   206    14.2   1015.2    0.00 
  91   20:00   0.00   52.5    74   11.5   208    14.6   1015.6    0.00 
  91   20:10   0.00   52.3    75   11.6   209    13.2   1015.6    0.00 
  91   20:20   0.00   52.1    76   12.3   208    14.8   1015.6    0.00 
  91   20:30   0.00   52.2    77   12.4   209    14.5   1015.6    0.00 
  91   20:40   0.00   52.1    77   12.1   203    14.2   1015.6    0.00 
  91   20:50   0.00   51.7    77   12.9   203    14.7   1015.2    0.00 
  91   21:00   0.00   51.8    77   13.1   203    15.1   1015.2    0.00 
  91   21:10   0.00   51.9    76   12.2   207    14.2   1015.2    0.00 
  91   21:20   0.00   51.5    78   10.8   217    13.3   1015.6    0.00 
  91   21:30   0.00   50.7    78    9.8   220    15.1   1015.9    0.00 
  91   21:40   0.00   50.8    76    6.9   224    12.9   1015.9    0.00 
  91   21:50   0.00   50.1    77    6.7   223     8.0   1015.9    0.00 
  91   22:00   0.00   49.0    79    6.1   207     8.4   1015.9    0.00 
  91   22:10   0.00   48.8    79    4.8   210     7.7   1015.9    0.00 
  91   22:20   0.00   49.3    76    4.0   237     7.4   1015.9    0.00 
  91   22:30   0.00   49.7    73    4.5   267     7.2   1015.9    0.00 
  91   22:40   0.00   53.2    58    8.3   306    13.7   1015.9    0.00 
  91   22:50   0.00   54.6    54   10.6   318    14.0   1015.9    0.00 
  91   23:00   0.00   55.6    50   13.3   311    18.5   1015.9    0.00 

Return to Jepson Prairie Reserve graphs page.


Western Regional Climate Center,wrcc@dri.edu